Time;durP1;ratioP1;P1;durP2;ratioP2;P2;SDS_P1;SDS_P2;PMS_P1;PMS_P2;Temp;Humidity;BMP_temperature;BMP_pressure;BME280_temperature;BME280_humidity;BME280_pressure;Samples;Min_cycle;Max_cycle;Signal;HPM_P1;HPM_P2
2023/04/07 00:00:03;;;;;;;;;;;9.10;91.50;9.50;99640.00;;;;338549;28;91154;-90
2023/04/07 00:00:15;;;;;;;;;;;9.10;91.50;9.60;99636.00;;;;337525;28;96537;-91
2023/04/07 00:00:27;;;;;;;;;;;9.10;91.20;9.60;99640.00;;;;338625;28;90499;-90
2023/04/07 00:00:40;;;;;;;;;;;9.10;91.10;9.60;99635.00;;;;336200;29;91995;-91
2023/04/07 00:00:52;;;;;;;;;;;9.10;91.20;9.50;99634.00;;;;333042;29;91211;-91
2023/04/07 00:01:04;;;;;;;;;;;9.10;91.20;9.50;99634.00;;;;338342;28;94660;-90
2023/04/07 00:01:16;;;;;;;;;;;9.10;91.40;9.50;99638.00;;;;337652;28;92009;-91
2023/04/07 00:01:28;;;;;;;;;;;9.10;91.50;9.50;99631.00;;;;335152;29;94731;-91
2023/04/07 00:01:41;;;;;;;;;;;9.10;91.40;9.50;99641.00;;;;336500;28;91978;-90
2023/04/07 00:01:53;;;;;;;;;;;9.10;91.50;9.50;99646.00;;;;335383;29;92970;-90
2023/04/07 00:02:05;;;;;;;;;;;9.10;91.50;9.60;99637.00;;;;338656;28;91962;-91
2023/04/07 00:02:17;;;;;;;;;;;9.10;91.20;9.50;99637.00;;;;335213;29;93737;-91
2023/04/07 00:02:29;;;;;;;;;;;9.10;91.30;9.40;99640.00;;;;334885;29;91423;-91
2023/04/07 00:02:41;;;;;;;;;;;9.10;91.50;9.40;99638.00;;;;338011;28;92096;-91
2023/04/07 00:02:55;;;;;;;;;;;9.10;91.70;9.50;99636.00;;;;337475;28;91252;-91
2023/04/07 00:03:07;;;;;;;;;;;9.10;91.60;9.50;99639.00;;;;336603;28;93569;-90
2023/04/07 00:03:20;;;;;;;;;;;9.10;91.60;9.60;99638.00;;;;336037;28;92181;-91
2023/04/07 00:03:32;;;;;;;;;;;9.10;91.60;9.60;99634.00;;;;337883;28;94797;-90
2023/04/07 00:03:45;;;;;;;;;;;9.10;91.40;9.70;99632.00;;;;336189;28;92058;-90
2023/04/07 00:03:57;;;;;;;;;;;9.10;91.20;9.60;99635.00;;;;335357;29;90932;-91
2023/04/07 00:04:09;;;;;;;;;;;9.10;91.40;9.60;99645.00;;;;336349;28;91136;-90
2023/04/07 00:04:21;;;;;;;;;;;9.10;91.60;9.60;99634.00;;;;332744;29;93952;-90
2023/04/07 00:04:33;;;;;;;;;;;9.10;91.40;9.60;99635.00;;;;336207;28;90535;-91
2023/04/07 00:04:45;;;;;;;;;;;9.10;91.20;9.50;99647.00;;;;336572;28;93551;-91
2023/04/07 00:04:57;;;;;;;;;;;9.10;91.20;9.50;99642.00;;;;334941;28;92066;-90
2023/04/07 00:05:09;;;;;;;;;;;9.10;91.30;9.50;99635.00;;;;336378;28;95082;-90
2023/04/07 00:05:21;;;;;;;;;;;9.10;91.30;9.50;99641.00;;;;334907;29;92127;-90
2023/04/07 00:05:33;;;;;;;;;;;9.10;91.30;9.50;99629.00;;;;339154;28;95968;-90
2023/04/07 00:05:45;;;;;;;;;;;9.10;91.40;9.50;99635.00;;;;337607;28;92014;-90
2023/04/07 00:05:57;;;;;;;;;;;9.10;91.50;9.40;99632.00;;;;332336;29;94035;-90
2023/04/07 00:06:09;;;;;;;;;;;9.10;91.60;9.40;99640.00;;;;336211;28;92039;-91
2023/04/07 00:06:21;;;;;;;;;;;9.10;91.60;9.40;99638.00;;;;336551;28;94962;-90
2023/04/07 00:06:32;;;;;;;;;;;9.10;91.50;9.40;99623.00;;;;336303;28;91246;-91
2023/04/07 00:06:44;;;;;;;;;;;9.10;91.60;9.30;99640.00;;;;336533;28;92956;-91
2023/04/07 00:06:56;;;;;;;;;;;9.10;91.70;9.40;99637.00;;;;336324;28;91138;-90
2023/04/07 00:07:08;;;;;;;;;;;9.00;91.80;9.40;99636.00;;;;334007;29;95743;-90
2023/04/07 00:07:20;;;;;;;;;;;9.10;91.70;9.50;99640.00;;;;336252;28;92055;-91
2023/04/07 00:07:31;;;;;;;;;;;9.10;91.50;9.40;99633.00;;;;337772;28;95955;-91
2023/04/07 00:07:55;;;;;;;;;;;9.10;91.40;9.50;99638.00;;;;335083;29;91139;-90
2023/04/07 00:08:08;;;;;;;;;;;9.10;91.30;9.50;99625.00;;;;337859;28;94478;-90
2023/04/07 00:08:20;;;;;;;;;;;9.10;91.30;9.50;99633.00;;;;337676;28;91917;-90
2023/04/07 00:08:32;;;;;;;;;;;9.00;91.20;9.50;99627.00;;;;337788;28;95853;-90
2023/04/07 00:08:44;;;;;;;;;;;9.10;91.40;9.40;99631.00;;;;338558;28;91489;-91
2023/04/07 00:08:56;;;;;;;;;;;9.10;91.50;9.50;99639.00;;;;336646;28;94055;-91
2023/04/07 00:09:09;;;;;;;;;;;9.00;91.30;9.50;99624.00;;;;336328;28;91128;-91
2023/04/07 00:09:21;;;;;;;;;;;9.00;91.20;9.60;99623.00;;;;339163;28;94549;-91
2023/04/07 00:09:33;;;;;;;;;;;9.10;91.20;9.60;99622.00;;;;337546;28;92075;-90
2023/04/07 00:09:45;;;;;;;;;;;9.10;91.30;9.70;99631.00;;;;337926;28;95540;-91
2023/04/07 00:09:57;;;;;;;;;;;9.10;91.40;9.60;99621.00;;;;337763;28;91061;-90
2023/04/07 00:10:09;;;;;;;;;;;9.10;91.40;9.70;99611.00;;;;337857;28;94695;-91
2023/04/07 00:10:21;;;;;;;;;;;9.10;91.40;9.70;99627.00;;;;336273;28;92037;-91
2023/04/07 00:10:33;;;;;;;;;;;9.10;91.30;9.80;99623.00;;;;335158;29;95824;-91
2023/04/07 00:10:44;;;;;;;;;;;9.10;91.40;9.70;99615.00;;;;334938;28;91943;-91
2023/04/07 00:10:57;;;;;;;;;;;9.10;91.50;9.80;99613.00;;;;335301;29;95622;-90
2023/04/07 00:11:09;;;;;;;;;;;9.00;91.20;9.80;99624.00;;;;338972;28;92019;-91
2023/04/07 00:11:20;;;;;;;;;;;9.10;91.10;9.90;99624.00;;;;336509;28;95775;-91
2023/04/07 00:11:32;;;;;;;;;;;9.10;91.10;9.80;99626.00;;;;334862;28;92114;-90
2023/04/07 00:11:44;;;;;;;;;;;9.10;91.10;9.90;99623.00;;;;336718;28;94659;-91
2023/04/07 00:11:56;;;;;;;;;;;9.10;91.10;9.80;99617.00;;;;336350;28;91924;-91
2023/04/07 00:12:08;;;;;;;;;;;9.10;91.20;9.70;99615.00;;;;333901;29;93628;-90
2023/04/07 00:12:20;;;;;;;;;;;9.10;91.30;9.60;99623.00;;;;334971;28;91218;-90
2023/04/07 00:12:31;;;;;;;;;;;9.10;91.30;9.70;99621.00;;;;338903;28;94931;-90
2023/04/07 00:12:43;;;;;;;;;;;9.10;91.20;9.60;99620.00;;;;335894;28;91352;-90
2023/04/07 00:12:55;;;;;;;;;;;9.10;91.20;9.60;99626.00;;;;336617;28;92605;-91
2023/04/07 00:13:07;;;;;;;;;;;9.10;91.20;9.60;99617.00;;;;335087;29;91974;-90
2023/04/07 00:13:18;;;;;;;;;;;9.10;91.10;9.70;99619.00;;;;333862;29;94654;-90
2023/04/07 00:13:30;;;;;;;;;;;9.10;90.90;9.70;99621.00;;;;337622;28;91928;-90
2023/04/07 00:13:42;;;;;;;;;;;9.10;90.90;9.70;99620.00;;;;337878;28;95524;-91
2023/04/07 00:13:54;;;;;;;;;;;9.10;90.90;9.80;99626.00;;;;333587;29;91269;-91
2023/04/07 00:14:06;;;;;;;;;;;9.10;90.90;9.60;99625.00;;;;333920;29;96087;-91
2023/04/07 00:14:18;;;;;;;;;;;9.20;91.00;9.60;99629.00;;;;336352;28;91140;-90
2023/04/07 00:14:30;;;;;;;;;;;9.10;91.20;9.60;99622.00;;;;336325;28;94995;-91
2023/04/07 00:14:42;;;;;;;;;;;9.10;91.50;9.80;99624.00;;;;336291;28;90512;-90
2023/04/07 00:14:54;;;;;;;;;;;9.20;91.40;9.80;99617.00;;;;336649;28;93797;-91
2023/04/07 00:15:06;;;;;;;;;;;9.10;91.20;9.80;99625.00;;;;336399;28;92025;-91
2023/04/07 00:15:18;;;;;;;;;;;9.20;91.20;9.80;99630.00;;;;335150;29;95614;-90
2023/04/07 00:15:30;;;;;;;;;;;9.20;91.00;9.90;99618.00;;;;336194;28;91982;-91
2023/04/07 00:15:42;;;;;;;;;;;9.20;91.00;9.90;99619.00;;;;337601;28;96456;-90
2023/04/07 00:15:55;;;;;;;;;;;9.20;91.10;10.00;99619.00;;;;335080;29;91923;-90
2023/04/07 00:16:07;;;;;;;;;;;9.20;91.20;9.80;99622.00;;;;336450;28;95665;-91
2023/04/07 00:16:19;;;;;;;;;;;9.20;91.10;9.80;99630.00;;;;336366;28;91974;-90
2023/04/07 00:16:31;;;;;;;;;;;9.20;91.10;9.70;99625.00;;;;336509;28;94976;-91
2023/04/07 00:16:43;;;;;;;;;;;9.20;91.20;9.70;99624.00;;;;337614;28;91335;-90
2023/04/07 00:16:55;;;;;;;;;;;9.20;91.20;9.60;99621.00;;;;337737;28;94250;-91
2023/04/07 00:17:07;;;;;;;;;;;9.20;91.30;9.60;99624.00;;;;336235;28;91215;-91
2023/04/07 00:17:19;;;;;;;;;;;9.20;91.20;9.60;99631.00;;;;336556;28;94059;-90
2023/04/07 00:17:31;;;;;;;;;;;9.20;91.20;9.50;99625.00;;;;339007;28;91950;-91
2023/04/07 00:17:43;;;;;;;;;;;9.20;91.30;9.60;99627.00;;;;335237;29;93931;-90
2023/04/07 00:17:55;;;;;;;;;;;9.20;91.30;9.50;99631.00;;;;334925;28;92073;-91
2023/04/07 00:18:07;;;;;;;;;;;9.20;91.40;9.50;99629.00;;;;336539;28;93847;-90
2023/04/07 00:18:18;;;;;;;;;;;9.20;91.40;9.40;99625.00;;;;340336;28;91981;-90
2023/04/07 00:18:30;;;;;;;;;;;9.20;91.40;9.60;99626.00;;;;337888;28;94037;-90
2023/04/07 00:18:42;;;;;;;;;;;9.20;91.40;9.70;99624.00;;;;334906;29;90491;-90
2023/04/07 00:18:54;;;;;;;;;;;9.20;91.30;9.80;99631.00;;;;337795;28;94071;-90
2023/04/07 00:19:06;;;;;;;;;;;9.20;91.20;9.80;99630.00;;;;337400;28;92015;-91
2023/04/07 00:19:17;;;;;;;;;;;9.20;91.20;9.80;99627.00;;;;336478;28;93529;-90
2023/04/07 00:19:29;;;;;;;;;;;9.20;91.10;9.80;99630.00;;;;335021;29;91078;-90
2023/04/07 00:19:42;;;;;;;;;;;9.20;91.00;9.90;99620.00;;;;335184;29;93678;-90
2023/04/07 00:19:54;;;;;;;;;;;9.20;91.00;9.90;99624.00;;;;337622;28;91958;-91
2023/04/07 00:20:07;;;;;;;;;;;9.20;91.00;9.90;99627.00;;;;337743;28;94530;-90
2023/04/07 00:20:18;;;;;;;;;;;9.20;91.30;9.80;99626.00;;;;336257;28;91166;-90
2023/04/07 00:20:30;;;;;;;;;;;9.20;90.90;9.80;99627.00;;;;335276;29;94627;-91
2023/04/07 00:20:42;;;;;;;;;;;9.20;91.00;9.80;99629.00;;;;336175;28;91551;-91
2023/04/07 00:20:54;;;;;;;;;;;9.20;91.00;9.70;99627.00;;;;337915;28;93025;-90
2023/04/07 00:21:06;;;;;;;;;;;9.20;91.00;9.70;99624.00;;;;338964;28;91980;-91
2023/04/07 00:21:17;;;;;;;;;;;9.20;90.90;9.70;99629.00;;;;336496;28;93319;-91
2023/04/07 00:21:29;;;;;;;;;;;9.20;90.80;9.70;99627.00;;;;335174;29;91101;-91
2023/04/07 00:21:41;;;;;;;;;;;9.20;90.80;9.80;99624.00;;;;335319;29;93156;-89
2023/04/07 00:21:53;;;;;;;;;;;9.20;90.80;9.90;99625.00;;;;333680;28;92055;-91
2023/04/07 00:22:05;;;;;;;;;;;9.20;90.80;9.90;99628.00;;;;337882;28;93635;-91
2023/04/07 00:22:17;;;;;;;;;;;9.20;90.80;9.90;99624.00;;;;336164;28;91215;-90
2023/04/07 00:22:29;;;;;;;;;;;9.20;90.90;9.90;99623.00;;;;335020;29;93339;-90
2023/04/07 00:22:41;;;;;;;;;;;9.20;90.90;9.90;99621.00;;;;337319;28;91375;-90
2023/04/07 00:22:53;;;;;;;;;;;9.20;90.90;9.90;99638.00;;;;337857;28;95248;-91
2023/04/07 00:23:05;;;;;;;;;;;9.20;90.90;9.90;99625.00;;;;334987;29;91965;-91
2023/04/07 00:23:16;;;;;;;;;;;9.30;90.80;9.90;99628.00;;;;336490;28;93922;-90
2023/04/07 00:23:28;;;;;;;;;;;9.30;90.70;9.90;99627.00;;;;336082;28;92087;-91
2023/04/07 00:23:41;;;;;;;;;;;9.30;91.10;9.90;99622.00;;;;335294;29;92084;-91
2023/04/07 00:23:53;;;;;;;;;;;9.30;91.00;10.00;99635.00;;;;337438;28;92056;-91
2023/04/07 00:24:06;;;;;;;;;;;9.30;90.90;10.00;99630.00;;;;335283;29;92025;-90
2023/04/07 00:24:18;;;;;;;;;;;9.30;90.90;10.00;99630.00;;;;335137;29;91106;-90
2023/04/07 00:24:44;;;;;;;;;;;9.30;90.80;9.90;99631.00;;;;336407;28;92944;-91
2023/04/07 00:24:56;;;;;;;;;;;9.30;90.90;9.90;99632.00;;;;338777;28;91280;-90
2023/04/07 00:25:08;;;;;;;;;;;9.30;90.90;9.80;99624.00;;;;337828;28;92645;-90
2023/04/07 00:25:20;;;;;;;;;;;9.30;90.90;9.90;99626.00;;;;338864;28;91234;-91
2023/04/07 00:25:32;;;;;;;;;;;9.30;90.90;10.00;99623.00;;;;337574;28;93584;-91
2023/04/07 00:25:44;;;;;;;;;;;9.30;90.90;9.90;99629.00;;;;336284;28;91004;-90
2023/04/07 00:25:56;;;;;;;;;;;9.30;90.90;9.70;99624.00;;;;336622;28;92464;-91
2023/04/07 00:26:07;;;;;;;;;;;9.30;91.00;9.70;99630.00;;;;338938;28;92069;-90
2023/04/07 00:26:20;;;;;;;;;;;9.30;91.20;9.90;99634.00;;;;333810;29;95225;-91
2023/04/07 00:26:31;;;;;;;;;;;9.30;91.10;9.80;99627.00;;;;337723;28;91864;-91
2023/04/07 00:26:43;;;;;;;;;;;9.30;91.00;9.80;99625.00;;;;337773;28;93894;-90
2023/04/07 00:26:55;;;;;;;;;;;9.30;91.00;9.90;99627.00;;;;333551;29;91341;-90
2023/04/07 00:27:07;;;;;;;;;;;9.30;90.90;9.90;99624.00;;;;335255;29;94836;-91
2023/04/07 00:27:19;;;;;;;;;;;9.30;90.80;9.90;99631.00;;;;332354;29;92020;-91
2023/04/07 00:27:31;;;;;;;;;;;9.30;90.70;9.90;99631.00;;;;336618;28;92340;-91
2023/04/07 00:27:43;;;;;;;;;;;9.30;90.70;9.80;99621.00;;;;336182;28;92092;-90
2023/04/07 00:27:54;;;;;;;;;;;9.30;90.70;9.80;99624.00;;;;336450;28;94455;-90
2023/04/07 00:28:06;;;;;;;;;;;9.30;90.80;9.90;99629.00;;;;336206;28;91994;-90
2023/04/07 00:28:19;;;;;;;;;;;9.30;90.80;9.80;99627.00;;;;334746;29;95411;-90
2023/04/07 00:28:30;;;;;;;;;;;9.30;91.00;9.80;99621.00;;;;334815;29;92199;-90
2023/04/07 00:28:42;;;;;;;;;;;9.30;91.00;9.80;99627.00;;;;337744;28;93941;-91
2023/04/07 00:28:54;;;;;;;;;;;9.30;90.80;9.80;99626.00;;;;336002;28;91432;-91
2023/04/07 00:29:06;;;;;;;;;;;9.30;90.80;9.80;99626.00;;;;340453;28;93691;-91
2023/04/07 00:29:17;;;;;;;;;;;9.30;91.00;9.80;99627.00;;;;336280;28;91988;-90
2023/04/07 00:29:29;;;;;;;;;;;9.30;91.20;9.70;99626.00;;;;335242;29;92859;-90
2023/04/07 00:29:42;;;;;;;;;;;9.20;91.40;9.60;99628.00;;;;337701;28;91946;-91
2023/04/07 00:29:54;;;;;;;;;;;9.20;91.60;9.50;99621.00;;;;333871;29;95629;-91
2023/04/07 00:30:06;;;;;;;;;;;9.20;91.60;9.60;99629.00;;;;333677;29;91931;-91
2023/04/07 00:30:18;;;;;;;;;;;9.20;91.60;9.60;99627.00;;;;335199;29;94708;-91
2023/04/07 00:30:30;;;;;;;;;;;9.20;91.60;9.60;99626.00;;;;336219;28;92041;-90
2023/04/07 00:30:42;;;;;;;;;;;9.20;91.70;9.60;99634.00;;;;336453;28;95696;-91
2023/04/07 00:30:54;;;;;;;;;;;9.20;91.60;9.60;99626.00;;;;336259;28;91426;-91
2023/04/07 00:31:06;;;;;;;;;;;9.20;91.50;9.60;99630.00;;;;337428;28;92452;-91
2023/04/07 00:31:18;;;;;;;;;;;9.20;91.50;9.70;99624.00;;;;337560;28;91980;-91
2023/04/07 00:31:29;;;;;;;;;;;9.20;91.20;9.70;99625.00;;;;339013;28;92927;-91
2023/04/07 00:31:42;;;;;;;;;;;9.20;91.10;9.70;99632.00;;;;336114;28;92083;-90
2023/04/07 00:31:54;;;;;;;;;;;9.20;91.00;9.70;99631.00;;;;338962;28;94986;-91
2023/04/07 00:32:05;;;;;;;;;;;9.20;90.90;9.70;99629.00;;;;337483;28;92184;-91
2023/04/07 00:32:17;;;;;;;;;;;9.20;91.00;9.70;99640.00;;;;337729;28;94951;-91
2023/04/07 00:32:29;;;;;;;;;;;9.20;91.10;9.60;99626.00;;;;337708;28;92275;-90
2023/04/07 00:32:41;;;;;;;;;;;9.20;91.10;9.50;99627.00;;;;339148;28;95086;-89
2023/04/07 00:32:56;;;;;;;;;;;9.20;91.20;9.50;99635.00;;;;339956;28;90616;-91
2023/04/07 00:33:07;;;;;;;;;;;9.20;91.50;9.50;99635.00;;;;335217;29;95186;-91
2023/04/07 00:33:20;;;;;;;;;;;9.20;91.60;9.50;99626.00;;;;337428;28;92132;-91
2023/04/07 00:33:32;;;;;;;;;;;9.20;91.80;9.40;99627.00;;;;336533;28;93870;-91
2023/04/07 00:33:44;;;;;;;;;;;9.10;91.80;9.50;99635.00;;;;334852;29;92025;-90
2023/04/07 00:33:56;;;;;;;;;;;9.20;91.70;9.50;99627.00;;;;339057;28;95782;-91
2023/04/07 00:34:08;;;;;;;;;;;9.10;91.90;9.50;99629.00;;;;336095;28;92068;-90
2023/04/07 00:34:20;;;;;;;;;;;9.20;91.90;9.60;99634.00;;;;338961;28;93810;-91
2023/04/07 00:34:32;;;;;;;;;;;9.10;91.60;9.60;99626.00;;;;338829;28;91223;-90
2023/04/07 00:34:44;;;;;;;;;;;9.10;91.40;9.60;99620.00;;;;340326;28;92429;-91
2023/04/07 00:34:56;;;;;;;;;;;9.20;91.50;9.60;99627.00;;;;337637;28;90426;-91
2023/04/07 00:35:08;;;;;;;;;;;9.10;91.30;9.60;99626.00;;;;335320;29;93128;-90
2023/04/07 00:35:20;;;;;;;;;;;9.10;91.20;9.70;99618.00;;;;337567;28;91972;-91
2023/04/07 00:35:32;;;;;;;;;;;9.10;91.20;9.70;99621.00;;;;337945;28;94106;-90
2023/04/07 00:35:44;;;;;;;;;;;9.10;91.10;9.60;99627.00;;;;339038;28;91153;-91
2023/04/07 00:35:57;;;;;;;;;;;9.10;91.00;9.60;99626.00;;;;337588;28;95132;-90
2023/04/07 00:36:09;;;;;;;;;;;9.10;91.00;9.60;99627.00;;;;337366;28;92127;-91
2023/04/07 00:36:21;;;;;;;;;;;9.10;91.20;9.50;99624.00;;;;337937;28;93738;-91
2023/04/07 00:36:33;;;;;;;;;;;9.10;91.10;9.70;99622.00;;;;336299;28;91983;-91
2023/04/07 00:36:50;;;;;;;;;;;9.10;91.10;9.80;99625.00;;;;337811;28;93476;-91
2023/04/07 00:37:02;;;;;;;;;;;9.10;91.20;9.80;99618.00;;;;337615;28;90371;-90
2023/04/07 00:37:14;;;;;;;;;;;9.20;91.20;9.90;99624.00;;;;337652;28;94329;-91
2023/04/07 00:37:26;;;;;;;;;;;9.20;91.20;9.90;99617.00;;;;341257;28;92080;-90
2023/04/07 00:37:38;;;;;;;;;;;9.20;91.30;9.80;99620.00;;;;337708;28;93831;-90
2023/04/07 00:37:50;;;;;;;;;;;9.20;91.30;9.80;99624.00;;;;334768;29;92148;-91
2023/04/07 00:38:02;;;;;;;;;;;9.20;91.30;9.70;99624.00;;;;340389;28;94849;-90
2023/04/07 00:38:14;;;;;;;;;;;9.20;91.40;9.70;99617.00;;;;338932;28;92537;-90
2023/04/07 00:38:26;;;;;;;;;;;9.20;91.50;9.70;99624.00;;;;336392;28;95108;-90
2023/04/07 00:38:37;;;;;;;;;;;9.20;91.40;9.70;99620.00;;;;337451;28;91922;-91
2023/04/07 00:38:49;;;;;;;;;;;9.20;91.20;9.70;99615.00;;;;339354;28;91974;-91
2023/04/07 00:39:01;;;;;;;;;;;9.20;91.40;9.60;99623.00;;;;338915;28;91291;-91
2023/04/07 00:39:13;;;;;;;;;;;9.20;91.50;9.60;99619.00;;;;337827;28;93866;-91
2023/04/07 00:39:26;;;;;;;;;;;9.20;91.60;9.70;99619.00;;;;336330;28;91980;-90
2023/04/07 00:39:38;;;;;;;;;;;9.20;91.60;9.70;99616.00;;;;336611;28;93581;-90
2023/04/07 00:39:50;;;;;;;;;;;9.20;91.40;9.70;99626.00;;;;338792;28;91961;-90
2023/04/07 00:40:03;;;;;;;;;;;9.20;91.50;9.80;99627.00;;;;337793;28;93652;-91
2023/04/07 00:40:16;;;;;;;;;;;9.20;91.40;9.80;99616.00;;;;334997;29;92060;-91
2023/04/07 00:40:28;;;;;;;;;;;9.20;91.40;9.80;99620.00;;;;337916;28;92762;-90
2023/04/07 00:40:40;;;;;;;;;;;9.20;91.40;9.70;99616.00;;;;337243;28;92124;-91
2023/04/07 00:40:58;;;;;;;;;;;9.20;91.50;9.70;99622.00;;;;335183;29;93357;-90
2023/04/07 00:41:10;;;;;;;;;;;9.20;91.50;9.70;99626.00;;;;338787;28;90525;-91
2023/04/07 00:41:22;;;;;;;;;;;9.20;91.30;9.70;99620.00;;;;339158;28;93256;-90
2023/04/07 00:41:34;;;;;;;;;;;9.20;91.30;9.60;99613.00;;;;337545;28;92015;-90
2023/04/07 00:41:46;;;;;;;;;;;9.20;91.30;9.70;99616.00;;;;339078;28;95098;-91
2023/04/07 00:41:58;;;;;;;;;;;9.20;91.30;9.70;99619.00;;;;337540;28;91160;-90
2023/04/07 00:42:10;;;;;;;;;;;9.20;91.30;9.70;99607.00;;;;332599;29;95832;-91
2023/04/07 00:42:22;;;;;;;;;;;9.20;91.40;9.70;99620.00;;;;339025;28;91879;-91
2023/04/07 00:42:34;;;;;;;;;;;9.20;91.60;9.70;99608.00;;;;339215;28;92105;-90
2023/04/07 00:42:46;;;;;;;;;;;9.20;91.50;9.70;99618.00;;;;334638;29;92036;-91
2023/04/07 00:42:58;;;;;;;;;;;9.20;91.40;9.70;99614.00;;;;337705;28;94277;-90
2023/04/07 00:43:10;;;;;;;;;;;9.20;91.40;9.80;99620.00;;;;336088;28;91257;-91
2023/04/07 00:43:22;;;;;;;;;;;9.20;91.30;9.80;99602.00;;;;337802;28;95308;-91
2023/04/07 00:43:34;;;;;;;;;;;9.20;91.30;9.70;99618.00;;;;337427;28;92881;-92
2023/04/07 00:43:46;;;;;;;;;;;9.20;91.70;9.80;99615.00;;;;335194;29;95187;-91
2023/04/07 00:43:58;;;;;;;;;;;9.20;91.70;9.80;99627.00;;;;339073;28;91062;-91
2023/04/07 00:44:10;;;;;;;;;;;9.20;91.60;9.90;99619.00;;;;336601;28;92401;-91
2023/04/07 00:44:21;;;;;;;;;;;9.20;91.60;9.90;99608.00;;;;335271;29;91048;-91
2023/04/07 00:44:33;;;;;;;;;;;9.20;91.60;9.90;99609.00;;;;336577;28;93400;-91
2023/04/07 00:44:45;;;;;;;;;;;9.20;91.50;9.80;99615.00;;;;337692;28;92013;-91
2023/04/07 00:44:57;;;;;;;;;;;9.20;91.50;9.80;99612.00;;;;336640;28;94679;-91
2023/04/07 00:45:10;;;;;;;;;;;9.20;91.40;9.80;99619.00;;;;337651;28;91329;-91
2023/04/07 00:45:22;;;;;;;;;;;9.20;91.60;9.80;99618.00;;;;339229;28;92628;-90
2023/04/07 00:45:35;;;;;;;;;;;9.20;91.30;9.80;99618.00;;;;336457;28;91094;-90
2023/04/07 00:45:47;;;;;;;;;;;9.20;91.50;9.70;99616.00;;;;339203;28;95598;-91
2023/04/07 00:45:58;;;;;;;;;;;9.20;91.80;9.70;99614.00;;;;339873;28;92078;-90
2023/04/07 00:46:10;;;;;;;;;;;9.20;91.90;9.70;99616.00;;;;336509;28;95148;-91
2023/04/07 00:46:23;;;;;;;;;;;9.20;91.90;9.70;99613.00;;;;337798;28;91951;-90
2023/04/07 00:46:35;;;;;;;;;;;9.20;91.90;9.60;99615.00;;;;336336;28;95520;-90
2023/04/07 00:46:47;;;;;;;;;;;9.20;91.70;9.60;99616.00;;;;336542;28;91146;-91
2023/04/07 00:46:59;;;;;;;;;;;9.20;91.90;9.60;99612.00;;;;337931;28;95719;-91
2023/04/07 00:47:11;;;;;;;;;;;9.20;92.00;9.60;99616.00;;;;337574;28;91339;-91
2023/04/07 00:47:23;;;;;;;;;;;9.20;91.90;9.60;99611.00;;;;336533;28;93423;-90
2023/04/07 00:47:35;;;;;;;;;;;9.20;91.80;9.70;99612.00;;;;337722;28;91893;-91
2023/04/07 00:47:47;;;;;;;;;;;9.20;91.70;9.70;99611.00;;;;339119;28;95156;-91
2023/04/07 00:47:59;;;;;;;;;;;9.20;91.60;9.80;99611.00;;;;336416;28;92104;-91
2023/04/07 00:48:11;;;;;;;;;;;9.20;91.60;9.90;99617.00;;;;336440;28;93552;-90
2023/04/07 00:48:23;;;;;;;;;;;9.20;91.70;9.90;99608.00;;;;340381;28;91909;-91
2023/04/07 00:48:35;;;;;;;;;;;9.20;91.70;9.90;99603.00;;;;335236;29;93413;-91
2023/04/07 00:48:47;;;;;;;;;;;9.30;91.70;9.80;99610.00;;;;336357;28;91879;-91
2023/04/07 00:48:59;;;;;;;;;;;9.30;91.90;9.80;99621.00;;;;336374;28;95198;-90
2023/04/07 00:49:12;;;;;;;;;;;9.30;92.10;9.80;99609.00;;;;336166;28;90493;-91
2023/04/07 00:49:25;;;;;;;;;;;9.20;91.90;9.80;99615.00;;;;335338;29;91636;-91
2023/04/07 00:49:37;;;;;;;;;;;9.30;91.90;9.80;99612.00;;;;333807;29;91887;-90
2023/04/07 00:49:49;;;;;;;;;;;9.30;91.90;9.90;99612.00;;;;336501;28;93750;-90
2023/04/07 00:50:03;;;;;;;;;;;9.30;91.90;10.00;99611.00;;;;337329;28;92154;-90
2023/04/07 00:50:15;;;;;;;;;;;9.30;91.90;10.00;99602.00;;;;336514;28;93487;-91
2023/04/07 00:50:27;;;;;;;;;;;9.30;91.90;9.90;99605.00;;;;337420;28;92011;-91
2023/04/07 00:50:39;;;;;;;;;;;9.30;91.90;9.90;99615.00;;;;339190;28;92748;-91
2023/04/07 00:50:51;;;;;;;;;;;9.30;91.90;9.90;99612.00;;;;338731;28;91276;-91
2023/04/07 00:51:03;;;;;;;;;;;9.30;92.20;10.00;99607.00;;;;337846;28;94518;-90
2023/04/07 00:51:14;;;;;;;;;;;9.30;91.90;9.90;99609.00;;;;336220;28;91311;-90
2023/04/07 00:51:26;;;;;;;;;;;9.30;91.90;9.90;99607.00;;;;337927;28;91047;-91
2023/04/07 00:51:38;;;;;;;;;;;9.30;91.80;10.00;99613.00;;;;337538;28;91941;-90
2023/04/07 00:51:50;;;;;;;;;;;9.30;91.70;9.90;99604.00;;;;336370;28;94786;-90
2023/04/07 00:52:02;;;;;;;;;;;9.30;91.80;9.80;99610.00;;;;337547;28;91927;-90
2023/04/07 00:52:15;;;;;;;;;;;9.30;91.90;9.80;99599.00;;;;335714;28;92772;-91
2023/04/07 00:52:28;;;;;;;;;;;9.30;92.10;9.70;99609.00;;;;335088;29;91098;-91
2023/04/07 00:52:40;;;;;;;;;;;9.30;92.40;9.60;99611.00;;;;334005;29;93791;-90
2023/04/07 00:52:53;;;;;;;;;;;9.30;92.50;9.50;99604.00;;;;334955;29;92009;-91
2023/04/07 00:53:05;;;;;;;;;;;9.30;92.60;9.50;99608.00;;;;340349;28;95290;-90
2023/04/07 00:53:17;;;;;;;;;;;9.30;92.60;9.70;99603.00;;;;337425;28;90470;-90
2023/04/07 00:53:29;;;;;;;;;;;9.30;92.50;9.80;99612.00;;;;335270;29;91654;-90
2023/04/07 00:53:41;;;;;;;;;;;9.30;92.40;9.90;99608.00;;;;337679;28;91990;-90
2023/04/07 00:53:53;;;;;;;;;;;9.30;92.30;9.90;99603.00;;;;337780;28;96119;-91
2023/04/07 00:54:05;;;;;;;;;;;9.30;92.20;9.90;99607.00;;;;336212;28;91240;-90
2023/04/07 00:54:17;;;;;;;;;;;9.40;92.30;9.80;99607.00;;;;337804;28;95884;-90
2023/04/07 00:54:30;;;;;;;;;;;9.30;92.40;9.70;99611.00;;;;340140;28;92139;-91
2023/04/07 00:54:42;;;;;;;;;;;9.30;92.50;9.70;99603.00;;;;336536;28;93105;-90
2023/04/07 00:54:54;;;;;;;;;;;9.30;92.50;9.80;99603.00;;;;334835;29;92016;-91
2023/04/07 00:55:06;;;;;;;;;;;9.30;92.30;9.80;99598.00;;;;337715;28;95583;-90
2023/04/07 00:55:18;;;;;;;;;;;9.30;92.20;9.80;99606.00;;;;334818;28;91291;-90
2023/04/07 00:55:30;;;;;;;;;;;9.30;92.10;9.80;99607.00;;;;337700;28;93117;-91
2023/04/07 00:55:42;;;;;;;;;;;9.30;92.00;9.90;99613.00;;;;338999;28;91871;-90
2023/04/07 00:55:54;;;;;;;;;;;9.30;92.00;9.90;99599.00;;;;337780;28;94819;-91
2023/04/07 00:56:06;;;;;;;;;;;9.30;92.10;9.80;99601.00;;;;338818;28;92064;-90
2023/04/07 00:56:18;;;;;;;;;;;9.40;92.30;9.70;99604.00;;;;335285;29;91733;-90
2023/04/07 00:56:30;;;;;;;;;;;9.30;92.60;9.70;99603.00;;;;337675;28;91900;-90
2023/04/07 00:56:41;;;;;;;;;;;9.30;92.70;9.60;99604.00;;;;339097;28;95786;-91
2023/04/07 00:56:54;;;;;;;;;;;9.30;92.70;9.70;99603.00;;;;336358;28;91696;-91
2023/04/07 00:57:06;;;;;;;;;;;9.30;92.60;9.70;99602.00;;;;336483;28;94510;-90
2023/04/07 00:57:18;;;;;;;;;;;9.30;92.50;9.70;99600.00;;;;338686;28;91274;-91
2023/04/07 00:57:29;;;;;;;;;;;9.30;92.50;9.70;99601.00;;;;336336;28;94269;-90
2023/04/07 00:57:41;;;;;;;;;;;9.30;92.50;9.60;99600.00;;;;334833;29;92095;-90
2023/04/07 00:57:53;;;;;;;;;;;9.30;92.50;9.60;99596.00;;;;337751;28;95490;-90
2023/04/07 00:58:05;;;;;;;;;;;9.30;92.60;9.60;99600.00;;;;338885;28;92051;-90
2023/04/07 00:58:17;;;;;;;;;;;9.30;92.70;9.70;99609.00;;;;336363;28;94156;-90
2023/04/07 00:58:29;;;;;;;;;;;9.30;92.60;9.70;99603.00;;;;338739;28;91197;-90
2023/04/07 00:58:40;;;;;;;;;;;9.20;92.60;9.70;99602.00;;;;336335;28;93792;-91
2023/04/07 00:58:52;;;;;;;;;;;9.20;92.40;9.70;99599.00;;;;335970;28;91216;-91
2023/04/07 00:59:04;;;;;;;;;;;9.30;92.40;9.60;99608.00;;;;335120;28;93868;-90
2023/04/07 00:59:16;;;;;;;;;;;9.20;92.60;9.50;99604.00;;;;334800;28;90378;-91
2023/04/07 00:59:30;;;;;;;;;;;9.20;92.50;9.50;99603.00;;;;339143;28;93070;-90
2023/04/07 00:59:41;;;;;;;;;;;9.20;92.60;9.50;99612.00;;;;334880;28;92175;-91
2023/04/07 00:59:54;;;;;;;;;;;9.20;92.80;9.50;99608.00;;;;335184;29;95122;-89
2023/04/07 01:00:07;;;;;;;;;;;9.20;92.70;9.50;99609.00;;;;337456;28;92071;-91
2023/04/07 01:00:19;;;;;;;;;;;9.20;92.60;9.50;99598.00;;;;340327;28;94891;-91
2023/04/07 01:00:33;;;;;;;;;;;9.20;92.50;9.40;99596.00;;;;334934;29;92087;-91
2023/04/07 01:00:51;;;;;;;;;;;9.20;92.60;9.40;99600.00;;;;336475;28;94229;-91
2023/04/07 01:01:05;;;;;;;;;;;9.20;92.80;9.50;99614.00;;;;336155;28;92540;-90
2023/04/07 01:01:30;;;;;;;;;;;9.20;92.70;9.50;99606.00;;;;333938;29;92767;-91
2023/04/07 01:01:46;;;;;;;;;;;9.10;92.60;9.70;99609.00;;;;333812;29;90242;-90
2023/04/07 01:02:06;;;;;;;;;;;9.20;92.70;9.70;99605.00;;;;336484;28;94005;-90